createdAt,value
2022-08-14T00:02:16.572Z,21.35
2022-08-14T00:04:44.984Z,21.34
2022-08-14T00:07:14.753Z,21.29
2022-08-14T00:10:02.065Z,21.14
2022-08-14T00:12:39.433Z,21.06
2022-08-14T00:15:11.713Z,21.06
2022-08-14T00:17:47.965Z,21.03
2022-08-14T00:20:30.974Z,20.92
2022-08-14T00:23:12.254Z,20.95
2022-08-14T00:25:58.853Z,20.90
2022-08-14T00:28:35.750Z,20.77
2022-08-14T00:31:06.644Z,20.65
2022-08-14T00:33:51.026Z,20.62
2022-08-14T00:36:37.229Z,20.63
2022-08-14T00:39:13.728Z,20.51
2022-08-14T00:41:43.698Z,20.54
2022-08-14T00:44:11.514Z,20.57
2022-08-14T00:46:40.922Z,20.56
2022-08-14T00:49:11.557Z,20.40
2022-08-14T00:51:44.092Z,20.50
2022-08-14T00:54:21.579Z,20.47
2022-08-14T00:56:55.555Z,20.55
2022-08-14T00:59:25.405Z,20.41
2022-08-14T01:01:55.867Z,20.37
2022-08-14T01:04:38.281Z,20.39
2022-08-14T01:07:14.284Z,20.42
2022-08-14T01:09:42.559Z,20.29
2022-08-14T01:12:13.177Z,20.24
2022-08-14T01:14:55.820Z,20.28
2022-08-14T01:17:49.682Z,20.34
2022-08-14T01:20:35.888Z,20.31
2022-08-14T01:23:16.797Z,20.27
2022-08-14T01:25:48.489Z,20.20
2022-08-14T01:28:46.895Z,20.19
2022-08-14T01:31:08.768Z,20.09
2022-08-14T01:34:00.415Z,20.18
2022-08-14T01:36:35.427Z,20.16
2022-08-14T01:39:12.958Z,20.07
2022-08-14T01:41:42.761Z,20.00
2022-08-14T01:44:32.648Z,20.04
2022-08-14T01:47:05.894Z,19.94
2022-08-14T01:49:35.674Z,19.94
2022-08-14T01:52:34.079Z,20.09
2022-08-14T01:54:58.654Z,20.04
2022-08-14T01:57:49.732Z,20.01
2022-08-14T02:00:16.773Z,19.92
2022-08-14T02:02:46.755Z,19.82
2022-08-14T02:05:15.605Z,19.84
2022-08-14T02:07:55.925Z,19.75
2022-08-14T02:10:35.465Z,20.03
2022-08-14T02:13:13.983Z,19.90
2022-08-14T02:15:44.368Z,19.99
2022-08-14T02:18:15.352Z,20.08
2022-08-14T02:20:43.621Z,20.06
2022-08-14T02:23:11.818Z,20.17
2022-08-14T02:25:40.983Z,20.07
2022-08-14T02:28:26.102Z,19.95
2022-08-14T02:30:56.605Z,19.93
2022-08-14T02:33:25.255Z,19.82
2022-08-14T02:35:57.926Z,19.85
2022-08-14T02:38:34.968Z,19.72
2022-08-14T02:41:08.833Z,19.71
2022-08-14T02:43:45.996Z,19.63
2022-08-14T02:46:20.421Z,19.69
2022-08-14T02:49:01.918Z,19.61
2022-08-14T02:51:34.611Z,19.92
2022-08-14T02:54:03.695Z,19.90
2022-08-14T02:57:15.982Z,19.86
2022-08-14T02:59:28.897Z,20.02
2022-08-14T03:02:02.133Z,19.99
2022-08-14T03:04:30.788Z,20.01
2022-08-14T03:07:07.600Z,20.08
2022-08-14T03:10:25.007Z,19.92
2022-08-14T03:12:32.011Z,19.84
2022-08-14T03:15:03.640Z,19.75
2022-08-14T03:17:56.623Z,19.69
2022-08-14T03:20:22.388Z,19.54
2022-08-14T03:22:51.426Z,19.53
2022-08-14T03:25:21.694Z,19.50
2022-08-14T03:27:58.253Z,19.36
2022-08-14T03:30:39.856Z,19.30
2022-08-14T03:33:11.191Z,19.29
2022-08-14T03:36:05.089Z,19.41
2022-08-14T03:39:13.383Z,19.54
2022-08-14T03:41:23.167Z,19.61
2022-08-14T03:43:57.151Z,19.65
2022-08-14T03:46:52.526Z,19.61
2022-08-14T03:49:24.127Z,19.41
2022-08-14T03:51:56.017Z,19.35
2022-08-14T03:54:25.979Z,19.33
2022-08-14T03:56:54.626Z,19.31
2022-08-14T03:59:23.903Z,19.26
2022-08-14T04:02:01.755Z,19.28
2022-08-14T04:04:30.682Z,19.21
2022-08-14T04:07:00.016Z,19.26
2022-08-14T04:09:29.216Z,19.23
2022-08-14T04:11:58.199Z,19.21
2022-08-14T04:14:29.062Z,19.14
2022-08-14T04:16:57.283Z,19.07
2022-08-14T04:19:28.094Z,18.96
2022-08-14T04:22:03.347Z,19.01
2022-08-14T04:24:38.197Z,18.98
2022-08-14T04:27:07.302Z,18.96
2022-08-14T04:29:40.128Z,19.04
2022-08-14T04:33:02.205Z,18.97
2022-08-14T04:34:59.862Z,18.88
2022-08-14T04:37:45.844Z,18.90
2022-08-14T04:40:32.043Z,18.86
2022-08-14T04:43:17.887Z,18.91
2022-08-14T04:45:51.052Z,18.94
2022-08-14T04:48:36.707Z,19.05
2022-08-14T04:51:12.390Z,19.26
2022-08-14T04:53:43.839Z,19.26
2022-08-14T04:56:30.925Z,19.33
2022-08-14T04:59:10.261Z,19.36
2022-08-14T05:01:49.120Z,19.52
2022-08-14T05:04:20.897Z,19.57
2022-08-14T05:06:53.691Z,19.68
2022-08-14T05:09:23.288Z,19.86
2022-08-14T05:11:51.574Z,19.92
2022-08-14T05:14:43.344Z,20.03
2022-08-14T05:17:12.211Z,20.09
2022-08-14T05:19:44.250Z,20.21
2022-08-14T05:22:28.104Z,20.27
2022-08-14T05:24:55.973Z,20.34
2022-08-14T05:27:24.172Z,20.41
2022-08-14T05:29:55.408Z,20.55
2022-08-14T05:32:28.159Z,20.57
2022-08-14T05:34:58.989Z,20.74
2022-08-14T05:37:28.179Z,20.87
2022-08-14T05:39:58.163Z,20.99
2022-08-14T05:42:31.857Z,21.12
2022-08-14T05:45:01.683Z,21.27
2022-08-14T05:47:39.565Z,21.39
2022-08-14T05:50:17.380Z,21.52
2022-08-14T05:52:49.097Z,21.53
2022-08-14T05:55:22.719Z,21.65
2022-08-14T05:57:59.491Z,21.67
2022-08-14T06:00:34.791Z,21.72
2022-08-14T06:03:10.249Z,21.86
2022-08-14T06:05:39.454Z,21.88
2022-08-14T06:08:21.660Z,21.99
2022-08-14T06:11:03.147Z,22.04
2022-08-14T06:13:44.614Z,22.14
2022-08-14T06:16:15.428Z,22.10
2022-08-14T06:18:51.736Z,22.27
2022-08-14T06:21:21.334Z,22.38
2022-08-14T06:23:49.764Z,22.38
2022-08-14T06:26:20.595Z,22.57
2022-08-14T06:28:52.124Z,22.67
2022-08-14T06:31:20.800Z,22.79
2022-08-14T06:35:11.701Z,22.90
2022-08-14T06:36:39.321Z,22.93
2022-08-14T06:39:08.126Z,23.00
2022-08-14T06:41:58.176Z,22.99
2022-08-14T06:44:30.714Z,23.16
2022-08-14T06:47:00.928Z,23.35
2022-08-14T06:49:30.998Z,23.41
2022-08-14T06:52:08.402Z,23.59
2022-08-14T06:54:36.376Z,23.61
2022-08-14T06:57:04.591Z,23.63
2022-08-14T06:59:33.735Z,23.83
2022-08-14T07:02:19.345Z,23.90
2022-08-14T07:05:06.179Z,23.88
2022-08-14T07:07:39.149Z,23.85
2022-08-14T07:10:07.886Z,23.81
2022-08-14T07:13:00.940Z,24.09
2022-08-14T07:15:39.648Z,24.15
2022-08-14T07:18:09.293Z,24.39
2022-08-14T07:20:39.840Z,24.21
2022-08-14T07:23:20.551Z,24.27
2022-08-14T07:25:51.434Z,24.42
2022-08-14T07:28:23.396Z,24.57
2022-08-14T07:30:52.119Z,24.67
2022-08-14T07:33:24.915Z,24.69
2022-08-14T07:36:00.329Z,24.72
2022-08-14T07:38:35.855Z,24.77
2022-08-14T07:41:11.932Z,24.95
2022-08-14T07:43:52.991Z,25.13
2022-08-14T07:46:29.538Z,25.17
2022-08-14T07:48:58.979Z,25.39
2022-08-14T07:51:34.495Z,25.32
2022-08-14T07:54:11.305Z,25.24
2022-08-14T07:56:47.029Z,25.48
2022-08-14T07:59:18.296Z,25.49
2022-08-14T08:01:51.345Z,25.40
2022-08-14T08:04:24.512Z,25.57
2022-08-14T08:06:56.653Z,25.42
2022-08-14T08:09:31.897Z,25.55
2022-08-14T08:12:01.654Z,25.48
2022-08-14T08:14:34.594Z,25.65
2022-08-14T08:17:24.390Z,25.81
2022-08-14T08:19:53.698Z,26.03
2022-08-14T08:22:27.463Z,26.15
2022-08-14T08:25:00.808Z,26.50
2022-08-14T08:27:28.855Z,26.62
2022-08-14T08:30:10.262Z,26.31
2022-08-14T08:32:41.214Z,26.52
2022-08-14T08:35:18.721Z,26.74
2022-08-14T08:37:48.109Z,26.85
2022-08-14T08:40:31.226Z,26.81
2022-08-14T08:43:00.365Z,26.82
2022-08-14T08:45:29.443Z,27.03
2022-08-14T08:47:57.246Z,26.78
2022-08-14T08:53:02.097Z,26.88
2022-08-14T08:55:32.791Z,26.99
2022-08-14T08:58:04.471Z,26.82
2022-08-14T09:00:36.266Z,27.01
2022-08-14T09:03:06.944Z,27.09
2022-08-14T09:05:40.388Z,27.02
2022-08-14T09:08:30.683Z,27.19
2022-08-14T09:11:02.835Z,27.16
2022-08-14T09:13:49.117Z,27.20
2022-08-14T09:16:23.706Z,27.38
2022-08-14T09:18:53.852Z,27.32
2022-08-14T09:21:23.901Z,27.41
2022-08-14T09:24:28.369Z,27.63
2022-08-14T09:26:49.591Z,27.83
2022-08-14T09:29:22.824Z,28.02
2022-08-14T09:31:57.746Z,28.04
2022-08-14T09:34:58.833Z,27.95
2022-08-14T09:37:48.059Z,27.95
2022-08-14T09:40:29.500Z,28.07
2022-08-14T09:43:07.818Z,28.09
2022-08-14T09:45:53.443Z,27.97
2022-08-14T09:48:30.716Z,28.12
2022-08-14T09:54:17.944Z,28.38
2022-08-14T09:56:45.616Z,28.38
2022-08-14T09:59:16.073Z,28.48
2022-08-14T10:01:46.199Z,28.45
2022-08-14T10:04:33.648Z,28.41
2022-08-14T10:07:05.084Z,28.67
2022-08-14T10:09:34.677Z,28.77
2022-08-14T10:12:06.682Z,28.91
2022-08-14T10:14:44.242Z,29.00
2022-08-14T10:17:26.765Z,28.93
2022-08-14T10:19:55.703Z,28.93
2022-08-14T10:23:15.099Z,29.04
2022-08-14T10:25:19.684Z,28.78
2022-08-14T10:27:59.723Z,28.79
2022-08-14T10:30:37.636Z,28.97
2022-08-14T10:33:05.608Z,29.12
2022-08-14T10:35:43.261Z,29.19
2022-08-14T10:38:26.698Z,29.19
2022-08-14T10:40:59.339Z,29.32
2022-08-14T10:43:31.778Z,29.41
2022-08-14T10:46:21.793Z,29.57
2022-08-14T10:49:02.838Z,29.59
2022-08-14T10:51:36.156Z,29.86
2022-08-14T10:54:16.989Z,29.85
2022-08-14T10:56:57.870Z,30.23
2022-08-14T10:59:36.149Z,30.17
2022-08-14T11:02:22.270Z,30.13
2022-08-14T11:05:13.050Z,30.29
2022-08-14T11:07:44.376Z,30.25
2022-08-14T11:10:14.381Z,30.32
2022-08-14T11:12:48.063Z,30.44
2022-08-14T11:15:19.865Z,30.58
2022-08-14T11:17:48.738Z,30.75
2022-08-14T11:20:19.114Z,30.83
2022-08-14T11:22:52.932Z,30.87
2022-08-14T11:25:44.088Z,30.96
2022-08-14T11:28:19.111Z,30.89
2022-08-14T11:30:53.779Z,30.97
2022-08-14T11:33:29.381Z,30.84
2022-08-14T11:36:00.321Z,30.82
2022-08-14T11:38:37.869Z,30.78
2022-08-14T11:41:06.128Z,30.73
2022-08-14T11:43:40.534Z,30.90
2022-08-14T11:46:17.933Z,31.07
2022-08-14T11:49:05.435Z,31.13
2022-08-14T11:51:36.455Z,31.34
2022-08-14T11:54:34.971Z,31.45
2022-08-14T11:57:04.560Z,30.99
2022-08-14T11:59:33.752Z,30.97
2022-08-14T12:03:00.247Z,30.97
2022-08-14T12:04:59.897Z,31.08
2022-08-14T12:07:27.968Z,31.13
2022-08-14T12:09:59.236Z,31.21
2022-08-14T12:12:35.208Z,31.38
2022-08-14T12:15:03.289Z,31.53
2022-08-14T12:17:47.284Z,31.71
2022-08-14T12:20:32.308Z,31.72
2022-08-14T12:23:02.144Z,31.92
2022-08-14T12:25:30.569Z,32.10
2022-08-14T12:28:05.559Z,32.07
2022-08-14T12:30:43.133Z,32.13
2022-08-14T12:33:26.984Z,31.71
2022-08-14T12:36:05.573Z,32.00
2022-08-14T12:38:36.450Z,32.07
2022-08-14T12:41:10.279Z,32.09
2022-08-14T12:43:48.028Z,32.07
2022-08-14T12:46:27.516Z,32.21
2022-08-14T12:49:00.085Z,32.21
2022-08-14T12:51:31.377Z,32.09
2022-08-14T12:54:01.121Z,32.13
2022-08-14T12:56:33.033Z,32.20
2022-08-14T12:59:04.565Z,32.33
2022-08-14T13:01:59.432Z,32.54
2022-08-14T13:04:24.748Z,32.26
2022-08-14T13:06:53.789Z,32.34
2022-08-14T13:09:27.798Z,32.46
2022-08-14T13:12:32.556Z,32.63
2022-08-14T13:14:57.779Z,32.59
2022-08-14T13:17:27.013Z,32.82
2022-08-14T13:20:00.605Z,32.63
2022-08-14T13:22:42.639Z,32.65
2022-08-14T13:25:15.919Z,32.76
2022-08-14T13:27:47.633Z,32.84
2022-08-14T13:30:23.673Z,32.78
2022-08-14T13:32:53.345Z,32.69
2022-08-14T13:35:23.117Z,32.68
2022-08-14T13:37:53.463Z,33.00
2022-08-14T13:40:26.252Z,32.99
2022-08-14T13:42:57.243Z,32.85
2022-08-14T13:45:33.616Z,32.91
2022-08-14T13:48:27.370Z,33.06
2022-08-14T13:51:07.904Z,33.09
2022-08-14T13:54:07.006Z,33.24
2022-08-14T13:56:38.007Z,33.69
2022-08-14T13:59:07.478Z,35.46
2022-08-14T14:01:44.000Z,37.94
2022-08-14T14:04:19.391Z,40.90
2022-08-14T14:06:51.930Z,42.31
2022-08-14T14:09:26.980Z,41.42
2022-08-14T14:12:01.247Z,39.74
2022-08-14T14:14:50.845Z,41.18
2022-08-14T14:17:24.379Z,42.22
2022-08-14T14:19:52.590Z,41.16
2022-08-14T14:22:36.109Z,39.18
2022-08-14T14:25:14.465Z,37.56
2022-08-14T14:27:53.259Z,36.67
2022-08-14T14:30:52.059Z,37.01
2022-08-14T14:33:44.570Z,36.33
2022-08-14T14:36:05.024Z,34.37
2022-08-14T14:38:35.142Z,33.92
2022-08-14T14:41:05.743Z,33.49
2022-08-14T14:43:37.384Z,34.75
2022-08-14T14:46:10.258Z,35.76
2022-08-14T14:48:46.468Z,38.09
2022-08-14T14:51:16.659Z,38.93
2022-08-14T14:53:47.149Z,38.44
2022-08-14T14:56:50.686Z,35.90
2022-08-14T14:59:03.095Z,34.67
2022-08-14T15:01:36.133Z,36.00
2022-08-14T15:04:07.982Z,38.53
2022-08-14T15:06:48.397Z,41.03
2022-08-14T15:09:18.451Z,42.06
2022-08-14T15:11:48.126Z,43.70
2022-08-14T15:14:55.357Z,43.03
2022-08-14T15:17:06.385Z,42.92
2022-08-14T15:19:34.453Z,43.38
2022-08-14T15:22:02.263Z,41.91
2022-08-14T15:24:31.755Z,41.37
2022-08-14T15:27:00.312Z,38.14
2022-08-14T15:29:28.390Z,36.43
2022-08-14T15:31:56.318Z,35.56
2022-08-14T15:34:43.645Z,37.03
2022-08-14T15:37:16.719Z,39.26
2022-08-14T15:39:46.265Z,41.09
2022-08-14T15:42:16.376Z,39.68
2022-08-14T15:44:57.181Z,37.59
2022-08-14T15:47:30.806Z,36.21
2022-08-14T15:50:00.253Z,34.88
2022-08-14T15:52:32.394Z,34.25
2022-08-14T15:55:06.741Z,34.12
2022-08-14T15:57:36.226Z,33.64
2022-08-14T16:00:40.457Z,33.39
2022-08-14T16:03:12.717Z,33.19
2022-08-14T16:05:43.657Z,33.19
2022-08-14T16:08:29.033Z,33.25
2022-08-14T16:11:01.471Z,32.92
2022-08-14T16:13:41.593Z,32.76
2022-08-14T16:16:46.948Z,32.58
2022-08-14T16:19:07.508Z,32.40
2022-08-14T16:21:40.921Z,32.43
2022-08-14T16:24:33.016Z,32.55
2022-08-14T16:27:03.491Z,32.54
2022-08-14T16:29:35.666Z,32.31
2022-08-14T16:32:33.007Z,32.26
2022-08-14T16:34:54.872Z,32.30
2022-08-14T16:37:30.802Z,32.26
2022-08-14T16:40:02.533Z,32.06
2022-08-14T16:42:41.919Z,32.03
2022-08-14T16:45:24.892Z,31.85
2022-08-14T16:47:53.088Z,31.81
2022-08-14T16:50:43.623Z,31.77
2022-08-14T16:53:09.600Z,31.72
2022-08-14T16:55:53.723Z,31.66
2022-08-14T16:58:29.960Z,31.62
2022-08-14T17:01:23.229Z,31.63
2022-08-14T17:03:59.605Z,31.65
2022-08-14T17:06:47.086Z,31.68
2022-08-14T17:09:44.702Z,31.64
2022-08-14T17:12:33.526Z,31.57
2022-08-14T17:15:10.274Z,31.59
2022-08-14T17:17:49.990Z,31.60
2022-08-14T17:20:54.650Z,31.57
2022-08-14T17:23:15.140Z,31.50
2022-08-14T17:25:49.244Z,31.30
2022-08-14T17:31:12.280Z,31.31
2022-08-14T17:33:44.503Z,31.26
2022-08-14T17:36:22.451Z,31.15
2022-08-14T17:39:00.468Z,31.06
2022-08-14T17:41:38.678Z,30.89
2022-08-14T17:44:20.211Z,30.88
2022-08-14T17:46:58.165Z,30.74
2022-08-14T17:49:32.153Z,30.67
2022-08-14T17:52:17.046Z,30.55
2022-08-14T17:54:58.847Z,30.43
2022-08-14T17:57:40.617Z,30.24
2022-08-14T18:00:12.207Z,30.16
2022-08-14T18:02:50.531Z,30.09
2022-08-14T18:05:23.315Z,29.94
2022-08-14T18:08:33.334Z,29.75
2022-08-14T18:10:54.839Z,29.62
2022-08-14T18:13:50.986Z,29.46
2022-08-14T18:16:20.236Z,29.24
2022-08-14T18:18:52.339Z,29.16
2022-08-14T18:21:42.103Z,29.05
2022-08-14T18:24:20.130Z,28.90
2022-08-14T18:27:08.903Z,28.68
2022-08-14T18:29:43.026Z,28.48
2022-08-14T18:32:47.038Z,28.22
2022-08-14T18:35:19.312Z,28.13
2022-08-14T18:37:55.608Z,27.87
2022-08-14T18:40:34.659Z,27.78
2022-08-14T18:43:04.022Z,27.60
2022-08-14T18:45:33.451Z,27.47
2022-08-14T18:48:33.333Z,27.33
2022-08-14T18:51:45.601Z,27.15
2022-08-14T18:54:32.746Z,27.04
2022-08-14T18:57:03.993Z,27.22
2022-08-14T18:59:36.489Z,27.19
2022-08-14T19:02:43.264Z,27.15
2022-08-14T19:05:13.437Z,26.99
2022-08-14T19:07:48.108Z,27.08
2022-08-14T19:10:37.473Z,26.92
2022-08-14T19:13:12.003Z,26.70
2022-08-14T19:15:43.912Z,26.51
2022-08-14T19:18:28.700Z,26.41
2022-08-14T19:20:58.872Z,26.35
2022-08-14T19:23:43.842Z,26.28
2022-08-14T19:26:35.664Z,26.22
2022-08-14T19:29:39.876Z,26.15
2022-08-14T19:32:40.337Z,26.03
2022-08-14T19:35:55.712Z,25.94
2022-08-14T19:38:53.484Z,25.82
2022-08-14T19:41:25.070Z,25.76
2022-08-14T19:44:10.569Z,25.76
2022-08-14T19:47:02.804Z,25.62
2022-08-14T19:50:08.190Z,25.77
2022-08-14T19:52:23.044Z,25.75
2022-08-14T19:54:52.879Z,25.69
2022-08-14T19:57:22.275Z,25.68
2022-08-14T20:00:00.559Z,25.64
2022-08-14T20:02:30.066Z,25.99
2022-08-14T20:05:02.928Z,25.99
2022-08-14T20:07:56.293Z,25.88
2022-08-14T20:11:11.245Z,25.77
2022-08-14T20:13:32.296Z,25.74
2022-08-14T20:16:12.249Z,25.57
2022-08-14T20:18:51.997Z,25.31
2022-08-14T20:21:24.803Z,25.25
2022-08-14T20:24:31.906Z,25.08
2022-08-14T20:27:22.500Z,25.37
2022-08-14T20:30:32.847Z,25.38
2022-08-14T20:33:07.379Z,25.21
2022-08-14T20:35:42.751Z,25.13
2022-08-14T20:38:29.082Z,25.07
2022-08-14T20:41:01.658Z,24.97
2022-08-14T20:43:55.779Z,25.02
2022-08-14T20:46:30.148Z,24.92
2022-08-14T20:49:01.269Z,24.72
2022-08-14T20:51:36.435Z,24.68
2022-08-14T20:54:07.703Z,24.60
2022-08-14T20:56:38.293Z,24.49
2022-08-14T20:59:18.946Z,24.48
2022-08-14T21:01:51.592Z,24.34
2022-08-14T21:04:30.007Z,24.30
2022-08-14T21:07:25.020Z,24.39
2022-08-14T21:10:06.234Z,24.49
2022-08-14T21:13:14.358Z,24.40
2022-08-14T21:15:32.276Z,24.26
2022-08-14T21:18:01.662Z,24.15
2022-08-14T21:20:29.607Z,24.15
2022-08-14T21:23:01.154Z,24.20
2022-08-14T21:25:31.920Z,24.19
2022-08-14T21:28:03.236Z,24.10
2022-08-14T21:30:52.028Z,23.94
2022-08-14T21:33:22.596Z,23.85
2022-08-14T21:35:54.697Z,23.76
2022-08-14T21:38:33.639Z,23.71
2022-08-14T21:41:42.557Z,23.72
2022-08-14T21:44:18.038Z,23.74
2022-08-14T21:46:53.547Z,23.87
2022-08-14T21:49:25.523Z,23.78
2022-08-14T21:52:51.013Z,23.86
2022-08-14T21:54:53.417Z,23.88
2022-08-14T21:57:53.514Z,24.00
2022-08-14T22:00:34.888Z,24.13
2022-08-14T22:03:05.481Z,24.06
2022-08-14T22:05:35.007Z,23.97
2022-08-14T22:08:07.286Z,23.89
2022-08-14T22:10:35.912Z,23.81
2022-08-14T22:13:05.409Z,23.91
2022-08-14T22:15:35.415Z,23.81
2022-08-14T22:18:04.769Z,23.72
2022-08-14T22:20:36.276Z,23.68
2022-08-14T22:23:08.571Z,23.75
2022-08-14T22:25:41.142Z,24.24
2022-08-14T22:28:12.043Z,24.61
2022-08-14T22:30:41.708Z,24.50
2022-08-14T22:33:13.358Z,24.72
2022-08-14T22:35:44.225Z,24.74
2022-08-14T22:38:36.549Z,24.62
2022-08-14T22:41:26.594Z,24.56
2022-08-14T22:43:52.247Z,24.30
2022-08-14T22:46:21.699Z,24.19
2022-08-14T22:48:51.061Z,24.28
2022-08-14T22:51:22.610Z,24.10
2022-08-14T22:53:53.171Z,23.92
2022-08-14T22:56:22.338Z,23.68
2022-08-14T22:59:00.206Z,23.55
2022-08-14T23:01:57.223Z,23.49
2022-08-14T23:04:34.123Z,23.52
2022-08-14T23:07:21.770Z,23.56
2022-08-14T23:09:55.987Z,23.62
2022-08-14T23:12:28.644Z,23.80
2022-08-14T23:14:58.835Z,24.02
2022-08-14T23:17:27.606Z,24.08
2022-08-14T23:20:19.280Z,24.36
2022-08-14T23:22:51.827Z,24.52
2022-08-14T23:25:56.945Z,24.53
2022-08-14T23:28:33.752Z,24.62
2022-08-14T23:31:01.723Z,24.62
2022-08-14T23:33:29.676Z,24.57
2022-08-14T23:35:58.875Z,24.66
2022-08-14T23:38:30.366Z,24.72
2022-08-14T23:41:00.614Z,24.68
2022-08-14T23:43:31.355Z,24.67
2022-08-14T23:45:59.847Z,24.63
2022-08-14T23:48:28.626Z,24.63
2022-08-14T23:50:59.004Z,24.59
2022-08-14T23:53:48.771Z,24.58
2022-08-14T23:56:31.703Z,24.53
2022-08-14T23:59:01.795Z,24.45
